createdAt,value
2023-01-11T00:01:08.351Z,4.65
2023-01-11T00:03:36.387Z,4.61
2023-01-11T00:06:05.119Z,4.59
2023-01-11T00:08:33.204Z,4.57
2023-01-11T00:11:02.462Z,4.53
2023-01-11T00:13:32.112Z,4.36
2023-01-11T00:16:06.555Z,4.29
2023-01-11T00:18:35.794Z,4.31
2023-01-11T00:21:05.791Z,4.32
2023-01-11T00:23:35.540Z,4.35
2023-01-11T00:26:12.185Z,4.32
2023-01-11T00:28:40.286Z,4.34
2023-01-11T00:31:09.386Z,4.38
2023-01-11T00:33:37.526Z,4.42
2023-01-11T00:36:05.801Z,4.47
2023-01-11T00:38:53.708Z,4.54
2023-01-11T00:41:42.131Z,4.63
2023-01-11T00:44:29.770Z,4.71
2023-01-11T00:47:17.173Z,4.69
2023-01-11T00:49:45.287Z,4.72
2023-01-11T00:52:13.471Z,4.71
2023-01-11T00:54:42.315Z,4.69
2023-01-11T00:57:10.355Z,4.71
2023-01-11T00:59:39.678Z,4.66
2023-01-11T01:02:09.262Z,4.66
2023-01-11T01:04:38.027Z,4.64
2023-01-11T01:07:07.072Z,4.63
2023-01-11T01:09:35.179Z,4.62
2023-01-11T01:12:04.160Z,4.61
2023-01-11T01:14:33.564Z,4.66
2023-01-11T01:17:05.174Z,4.66
2023-01-11T01:19:35.666Z,4.65
2023-01-11T01:22:04.618Z,4.65
2023-01-11T01:24:33.996Z,4.67
2023-01-11T01:27:02.007Z,4.71
2023-01-11T01:29:30.226Z,4.68
2023-01-11T01:31:58.223Z,4.64
2023-01-11T01:34:26.411Z,4.62
2023-01-11T01:36:54.436Z,4.61
2023-01-11T01:39:22.446Z,4.59
2023-01-11T01:41:50.524Z,4.58
2023-01-11T01:44:56.844Z,4.60
2023-01-11T01:47:37.402Z,4.67
2023-01-11T01:50:12.890Z,4.71
2023-01-11T01:52:44.743Z,4.72
2023-01-11T01:55:20.073Z,4.73
2023-01-11T01:57:48.095Z,4.78
2023-01-11T02:00:16.539Z,4.80
2023-01-11T02:02:45.514Z,4.81
2023-01-11T02:05:16.073Z,4.82
2023-01-11T02:07:46.420Z,4.81
2023-01-11T02:10:22.551Z,4.87
2023-01-11T02:12:58.339Z,4.87
2023-01-11T02:15:26.637Z,4.88
2023-01-11T02:17:54.831Z,4.89
2023-01-11T02:21:31.056Z,4.88
2023-01-11T02:24:08.163Z,4.91
2023-01-11T02:27:09.820Z,4.93
2023-01-11T02:29:43.999Z,4.78
2023-01-11T02:32:39.524Z,4.83
2023-01-11T02:35:31.587Z,4.84
2023-01-11T02:38:05.887Z,4.86
2023-01-11T02:40:58.967Z,4.87
2023-01-11T02:43:52.185Z,4.90
2023-01-11T02:46:22.932Z,4.93
2023-01-11T02:49:29.508Z,4.96
2023-01-11T02:52:12.874Z,4.95
2023-01-11T02:54:45.134Z,4.87
2023-01-11T02:57:15.633Z,4.85
2023-01-11T02:59:49.009Z,4.84
2023-01-11T03:02:17.063Z,4.87
2023-01-11T03:04:45.164Z,4.93
2023-01-11T03:07:39.404Z,4.94
2023-01-11T03:10:19.373Z,4.92
2023-01-11T03:13:02.675Z,4.90
2023-01-11T03:15:43.082Z,4.87
2023-01-11T03:18:28.248Z,4.87
2023-01-11T03:21:44.153Z,4.86
2023-01-11T03:24:33.966Z,4.81
2023-01-11T03:27:14.731Z,4.81
2023-01-11T03:29:52.062Z,4.83
2023-01-11T03:32:44.779Z,4.82
2023-01-11T03:35:15.956Z,4.84
2023-01-11T03:38:07.346Z,4.78
2023-01-11T03:40:40.768Z,4.80
2023-01-11T03:43:13.817Z,4.79
2023-01-11T03:46:10.603Z,4.75
2023-01-11T03:48:49.015Z,4.77
2023-01-11T03:51:28.013Z,4.78
2023-01-11T03:53:58.395Z,4.85
2023-01-11T03:56:39.854Z,4.89
2023-01-11T03:59:07.995Z,4.88
2023-01-11T04:01:37.886Z,4.86
2023-01-11T04:04:06.104Z,4.87
2023-01-11T04:06:37.180Z,4.92
2023-01-11T04:09:06.756Z,4.91
2023-01-11T04:11:34.965Z,4.92
2023-01-11T04:14:03.060Z,4.95
2023-01-11T04:16:31.151Z,4.93
2023-01-11T04:18:59.175Z,4.95
2023-01-11T04:21:27.152Z,4.98
2023-01-11T04:23:55.303Z,4.98
2023-01-11T04:26:23.271Z,4.87
2023-01-11T04:28:53.429Z,4.83
2023-01-11T04:31:22.416Z,4.87
2023-01-11T04:33:50.519Z,4.90
2023-01-11T04:36:18.696Z,4.92
2023-01-11T04:38:46.861Z,4.90
2023-01-11T04:41:33.719Z,4.85
2023-01-11T04:44:01.873Z,4.77
2023-01-11T04:46:30.004Z,4.71
2023-01-11T04:48:58.338Z,4.66
2023-01-11T04:51:26.357Z,4.63
2023-01-11T04:53:54.382Z,4.59
2023-01-11T04:56:22.478Z,4.60
2023-01-11T04:58:50.479Z,4.59
2023-01-11T05:01:19.731Z,4.56
2023-01-11T05:03:48.172Z,4.53
2023-01-11T05:06:16.268Z,4.55
2023-01-11T05:08:47.948Z,4.47
2023-01-11T05:11:17.584Z,4.45
2023-01-11T05:13:45.762Z,4.40
2023-01-11T05:16:15.802Z,4.26
2023-01-11T05:18:52.951Z,4.21
2023-01-11T05:21:23.849Z,4.22
2023-01-11T05:23:53.023Z,4.20
2023-01-11T05:26:25.550Z,4.17
2023-01-11T05:28:56.482Z,4.13
2023-01-11T05:31:25.841Z,4.06
2023-01-11T05:33:56.415Z,4.06
2023-01-11T05:36:25.756Z,4.08
2023-01-11T05:38:56.033Z,4.03
2023-01-11T05:41:26.914Z,4.00
2023-01-11T05:44:14.271Z,3.97
2023-01-11T05:46:44.063Z,3.94
2023-01-11T05:49:14.041Z,3.96
2023-01-11T05:51:43.315Z,3.95
2023-01-11T05:54:14.457Z,3.94
2023-01-11T05:56:43.077Z,3.93
2023-01-11T05:59:11.997Z,3.86
2023-01-11T06:01:40.289Z,3.80
2023-01-11T06:04:08.797Z,3.79
2023-01-11T06:06:37.223Z,3.80
2023-01-11T06:09:05.367Z,3.81
2023-01-11T06:11:36.215Z,3.82
2023-01-11T06:14:04.352Z,3.83
2023-01-11T06:16:32.500Z,3.84
2023-01-11T06:19:01.160Z,3.81
2023-01-11T06:21:29.241Z,3.77
2023-01-11T06:23:57.325Z,3.72
2023-01-11T06:26:25.372Z,3.71
2023-01-11T06:28:53.755Z,3.74
2023-01-11T06:31:21.968Z,3.76
2023-01-11T06:33:50.162Z,3.75
2023-01-11T06:36:18.216Z,3.79
2023-01-11T06:38:46.329Z,3.74
2023-01-11T06:41:14.403Z,3.72
2023-01-11T06:43:42.824Z,3.70
2023-01-11T06:46:16.166Z,3.64
2023-01-11T06:48:45.087Z,3.58
2023-01-11T06:51:13.890Z,3.73
2023-01-11T06:53:43.826Z,3.83
2023-01-11T06:56:15.593Z,3.88
2023-01-11T06:58:46.754Z,3.94
2023-01-11T07:01:16.351Z,3.96
2023-01-11T07:03:45.544Z,3.98
2023-01-11T07:06:14.524Z,3.96
2023-01-11T07:08:42.856Z,3.97
2023-01-11T07:11:11.036Z,3.96
2023-01-11T07:13:39.550Z,4.00
2023-01-11T07:16:07.975Z,4.05
2023-01-11T07:18:37.397Z,4.12
2023-01-11T07:21:05.510Z,4.14
2023-01-11T07:23:33.606Z,4.18
2023-01-11T07:26:01.701Z,4.22
2023-01-11T07:28:30.870Z,4.25
2023-01-11T07:31:00.168Z,4.30
2023-01-11T07:33:28.384Z,4.29
2023-01-11T07:35:58.423Z,4.38
2023-01-11T07:38:30.877Z,4.43
2023-01-11T07:40:59.091Z,4.46
2023-01-11T07:43:27.183Z,4.47
2023-01-11T07:45:57.656Z,4.52
2023-01-11T07:48:27.089Z,4.53
2023-01-11T07:50:55.701Z,4.54
2023-01-11T07:53:26.368Z,4.60
2023-01-11T07:55:57.879Z,4.57
2023-01-11T07:58:26.078Z,4.69
2023-01-11T08:01:00.068Z,4.82
2023-01-11T08:03:28.475Z,4.86
2023-01-11T08:05:56.864Z,4.92
2023-01-11T08:08:25.298Z,4.97
2023-01-11T08:11:12.165Z,5.03
2023-01-11T08:13:58.918Z,5.15
2023-01-11T08:16:27.513Z,5.13
2023-01-11T08:18:55.852Z,5.08
2023-01-11T08:21:24.103Z,4.91
2023-01-11T08:23:59.790Z,4.89
2023-01-11T08:26:27.981Z,4.68
2023-01-11T08:28:56.303Z,4.69
2023-01-11T08:31:26.015Z,4.71
2023-01-11T08:33:54.244Z,4.75
2023-01-11T08:36:24.545Z,4.64
2023-01-11T08:38:59.471Z,4.60
2023-01-11T08:41:27.822Z,4.70
2023-01-11T08:43:56.045Z,4.74
2023-01-11T08:46:24.248Z,4.79
2023-01-11T08:48:55.581Z,4.66
2023-01-11T08:51:23.839Z,4.73
2023-01-11T08:53:53.089Z,4.70
2023-01-11T08:56:21.675Z,4.80
2023-01-11T08:58:49.786Z,4.86
2023-01-11T09:01:17.870Z,4.85
2023-01-11T09:03:46.075Z,4.92
2023-01-11T09:06:14.325Z,4.90
2023-01-11T09:08:42.830Z,4.82
2023-01-11T09:11:30.802Z,4.83
2023-01-11T09:13:59.065Z,4.82
2023-01-11T09:16:27.212Z,4.95
2023-01-11T09:18:55.929Z,5.17
2023-01-11T09:21:23.962Z,5.43
2023-01-11T09:23:52.174Z,5.45
2023-01-11T09:26:20.526Z,5.36
2023-01-11T09:28:48.875Z,5.26
2023-01-11T09:31:17.391Z,5.23
2023-01-11T09:33:45.547Z,5.27
2023-01-11T09:36:15.314Z,5.31
2023-01-11T09:38:44.054Z,5.34
2023-01-11T09:41:21.642Z,5.39
2023-01-11T09:44:03.972Z,5.39
2023-01-11T09:46:33.644Z,5.47
2023-01-11T09:49:03.626Z,5.41
2023-01-11T09:51:35.934Z,5.41
2023-01-11T09:54:08.257Z,5.46
2023-01-11T09:56:48.040Z,5.42
2023-01-11T09:59:44.375Z,5.48
2023-01-11T10:03:00.161Z,5.48
2023-01-11T10:05:51.619Z,5.46
2023-01-11T10:18:28.984Z,5.58
2023-01-11T10:18:41.377Z,5.62
2023-01-11T10:20:40.055Z,5.67
2023-01-11T10:23:25.552Z,5.66
2023-01-11T10:25:58.941Z,5.78
2023-01-11T10:28:43.254Z,5.64
2023-01-11T10:31:30.229Z,5.69
2023-01-11T10:34:04.658Z,5.89
2023-01-11T10:37:03.831Z,5.87
2023-01-11T10:39:43.713Z,5.87
2023-01-11T10:42:21.719Z,5.93
2023-01-11T10:45:00.211Z,5.92
2023-01-11T10:47:42.719Z,6.01
2023-01-11T10:50:32.847Z,5.99
2023-01-11T10:53:12.925Z,6.10
2023-01-11T10:55:57.764Z,6.12
2023-01-11T10:58:38.999Z,6.09
2023-01-11T11:01:22.872Z,6.09
2023-01-11T11:04:26.087Z,6.08
2023-01-11T11:07:38.302Z,5.99
2023-01-11T11:10:35.915Z,5.98
2023-01-11T11:13:39.927Z,5.99
2023-01-11T11:16:35.357Z,6.02
2023-01-11T11:19:04.181Z,5.93
2023-01-11T11:21:35.758Z,5.97
2023-01-11T11:24:33.907Z,5.94
2023-01-11T11:27:27.613Z,6.03
2023-01-11T11:29:57.295Z,6.04
2023-01-11T11:32:36.772Z,6.10
2023-01-11T11:35:08.181Z,5.99
2023-01-11T11:37:44.455Z,5.89
2023-01-11T11:40:32.714Z,5.90
2023-01-11T11:43:21.675Z,5.93
2023-01-11T11:45:52.050Z,5.92
2023-01-11T11:48:20.468Z,5.93
2023-01-11T11:50:50.642Z,5.91
2023-01-11T11:53:36.734Z,5.95
2023-01-11T11:56:18.040Z,5.88
2023-01-11T11:58:47.297Z,5.92
2023-01-11T12:01:35.628Z,5.79
2023-01-11T12:04:21.563Z,5.80
2023-01-11T12:07:09.246Z,5.91
2023-01-11T12:09:41.810Z,6.01
2023-01-11T12:12:16.818Z,6.07
2023-01-11T12:15:06.915Z,6.08
2023-01-11T12:17:35.527Z,6.11
2023-01-11T12:20:24.040Z,6.03
2023-01-11T12:23:14.170Z,6.08
2023-01-11T12:25:47.465Z,6.09
2023-01-11T12:28:28.425Z,6.10
2023-01-11T12:31:06.883Z,6.17
2023-01-11T12:33:35.116Z,6.22
2023-01-11T12:36:33.301Z,6.17
2023-01-11T12:39:22.261Z,6.35
2023-01-11T12:42:07.027Z,6.62
2023-01-11T12:45:04.905Z,6.77
2023-01-11T12:48:11.387Z,6.87
2023-01-11T12:51:02.854Z,6.96
2023-01-11T12:53:46.226Z,7.10
2023-01-11T12:56:39.438Z,7.24
2023-01-11T12:59:07.369Z,7.29
2023-01-11T13:01:47.661Z,7.40
2023-01-11T13:04:24.309Z,7.49
2023-01-11T13:07:27.068Z,7.63
2023-01-11T13:10:34.503Z,7.76
2023-01-11T13:13:34.595Z,7.91
2023-01-11T13:16:26.228Z,8.03
2023-01-11T13:19:03.524Z,8.09
2023-01-11T13:21:53.507Z,8.19
2023-01-11T13:24:28.810Z,8.29
2023-01-11T13:27:07.612Z,8.34
2023-01-11T13:29:37.981Z,8.35
2023-01-11T13:32:13.664Z,8.40
2023-01-11T13:34:50.572Z,8.41
2023-01-11T13:37:21.618Z,8.32
2023-01-11T13:40:16.280Z,8.31
2023-01-11T13:42:59.536Z,8.34
2023-01-11T13:45:37.885Z,8.33
2023-01-11T13:48:33.890Z,8.36
2023-01-11T13:51:35.048Z,8.34
2023-01-11T13:54:48.907Z,8.28
2023-01-11T13:57:35.311Z,8.24
2023-01-11T14:00:15.230Z,8.24
2023-01-11T14:03:05.370Z,8.21
2023-01-11T14:05:44.240Z,8.15
2023-01-11T14:08:22.701Z,8.09
2023-01-11T14:10:56.896Z,8.06
2023-01-11T14:13:53.622Z,8.01
2023-01-11T14:16:27.862Z,7.91
2023-01-11T14:19:13.020Z,7.85
2023-01-11T14:21:47.220Z,7.78
2023-01-11T14:24:18.083Z,7.73
2023-01-11T14:27:04.649Z,7.66
2023-01-11T14:30:12.764Z,7.59
2023-01-11T14:32:56.340Z,7.52
2023-01-11T14:35:39.836Z,7.45
2023-01-11T14:38:42.289Z,7.38
2023-01-11T14:41:13.679Z,7.26
2023-01-11T14:44:00.026Z,7.16
2023-01-11T14:46:56.295Z,7.09
2023-01-11T14:49:38.484Z,7.01
2023-01-11T14:52:34.414Z,6.93
2023-01-11T14:55:16.466Z,6.87
2023-01-11T14:58:01.557Z,6.78
2023-01-11T15:00:29.629Z,6.67
2023-01-11T15:03:00.519Z,6.58
2023-01-11T15:05:29.347Z,6.51
2023-01-11T15:08:28.606Z,6.47
2023-01-11T15:10:59.011Z,6.41
2023-01-11T15:13:51.711Z,6.32
2023-01-11T15:16:42.824Z,6.25
2023-01-11T15:19:25.341Z,6.20
2023-01-11T15:21:55.969Z,6.16
2023-01-11T15:24:31.030Z,6.12
2023-01-11T15:27:01.554Z,6.06
2023-01-11T15:29:33.804Z,5.97
2023-01-11T15:32:01.962Z,5.92
2023-01-11T15:34:32.953Z,5.87
2023-01-11T15:37:01.591Z,5.81
2023-01-11T15:39:48.751Z,5.71
2023-01-11T15:42:16.783Z,5.61
2023-01-11T15:45:09.096Z,5.52
2023-01-11T15:47:43.399Z,5.46
2023-01-11T15:50:29.860Z,5.39
2023-01-11T15:53:23.011Z,5.32
2023-01-11T15:56:16.305Z,5.23
2023-01-11T15:59:17.995Z,5.13
2023-01-11T16:01:58.790Z,5.03
2023-01-11T16:05:22.730Z,4.90
2023-01-11T16:08:17.982Z,4.86
2023-01-11T16:11:03.273Z,4.79
2023-01-11T16:13:48.054Z,4.68
2023-01-11T16:16:27.170Z,4.62
2023-01-11T16:18:59.107Z,4.53
2023-01-11T16:21:36.232Z,4.44
2023-01-11T16:24:07.330Z,4.38
2023-01-11T16:26:38.598Z,4.34
2023-01-11T16:29:24.812Z,4.29
2023-01-11T16:32:04.847Z,4.23
2023-01-11T16:34:44.050Z,4.23
2023-01-11T16:37:43.814Z,4.17
2023-01-11T16:40:17.428Z,4.08
2023-01-11T16:42:53.752Z,4.01
2023-01-11T16:45:25.533Z,3.98
2023-01-11T16:48:04.687Z,3.96
2023-01-11T16:50:34.876Z,3.94
2023-01-11T16:53:05.136Z,3.92
2023-01-11T16:55:42.560Z,3.93
2023-01-11T16:58:31.266Z,3.91
2023-01-11T17:01:01.010Z,3.87
2023-01-11T17:03:51.307Z,3.81
2023-01-11T17:06:22.133Z,3.72
2023-01-11T17:08:56.715Z,3.64
2023-01-11T17:11:44.602Z,3.60
2023-01-11T17:14:48.853Z,3.57
2023-01-11T17:17:17.423Z,3.52
2023-01-11T17:19:48.134Z,3.49
2023-01-11T17:22:26.081Z,3.46
2023-01-11T17:24:58.820Z,3.46
2023-01-11T17:27:40.769Z,3.40
2023-01-11T17:30:29.061Z,3.35
2023-01-11T17:33:01.653Z,3.30
2023-01-11T17:35:33.958Z,3.28
2023-01-11T17:38:06.181Z,3.25
2023-01-11T17:40:40.304Z,3.20
2023-01-11T17:43:44.311Z,3.04
2023-01-11T17:46:23.128Z,2.97
2023-01-11T17:48:59.695Z,2.87
2023-01-11T17:51:33.978Z,2.81
2023-01-11T17:54:02.107Z,2.74
2023-01-11T17:56:33.089Z,2.73
2023-01-11T17:59:23.755Z,2.70
2023-01-11T18:01:57.896Z,2.69
2023-01-11T18:04:27.891Z,2.69
2023-01-11T18:07:28.645Z,2.62
2023-01-11T18:10:02.165Z,2.60
2023-01-11T18:12:34.976Z,2.56
2023-01-11T18:15:06.513Z,2.50
2023-01-11T18:17:39.040Z,2.47
2023-01-11T18:20:16.094Z,2.43
2023-01-11T18:22:57.406Z,2.43
2023-01-11T18:25:28.339Z,2.41
2023-01-11T18:28:11.829Z,2.39
2023-01-11T18:30:52.508Z,2.38
2023-01-11T18:33:24.057Z,2.31
2023-01-11T18:35:54.995Z,2.32
2023-01-11T18:38:25.844Z,2.30
2023-01-11T18:40:54.509Z,2.26
2023-01-11T18:43:31.099Z,2.25
2023-01-11T18:45:59.243Z,2.29
2023-01-11T18:48:27.226Z,2.33
2023-01-11T18:50:56.030Z,2.35
2023-01-11T18:53:24.629Z,2.37
2023-01-11T18:55:52.744Z,2.40
2023-01-11T18:58:21.066Z,2.42
2023-01-11T19:00:49.388Z,2.42
2023-01-11T19:03:17.509Z,2.40
2023-01-11T19:05:46.505Z,2.38
2023-01-11T19:08:14.655Z,2.36
2023-01-11T19:10:42.804Z,2.37
2023-01-11T19:13:10.873Z,2.36
2023-01-11T19:15:38.995Z,2.41
2023-01-11T19:18:07.110Z,2.47
2023-01-11T19:20:36.888Z,2.53
2023-01-11T19:23:04.969Z,2.54
2023-01-11T19:25:33.043Z,2.56
2023-01-11T19:28:05.377Z,2.59
2023-01-11T19:30:33.663Z,2.59
2023-01-11T19:33:01.764Z,2.56
2023-01-11T19:35:29.818Z,2.53
2023-01-11T19:37:57.835Z,2.50
2023-01-11T19:40:25.862Z,2.45
2023-01-11T19:42:53.918Z,2.44
2023-01-11T19:45:21.911Z,2.39
2023-01-11T19:47:50.047Z,2.33
2023-01-11T19:50:18.566Z,2.28
2023-01-11T19:52:47.006Z,2.31
2023-01-11T19:55:15.024Z,2.33
2023-01-11T19:57:43.085Z,2.35
2023-01-11T20:00:14.273Z,2.38
2023-01-11T20:02:43.790Z,2.34
2023-01-11T20:05:13.624Z,2.36
2023-01-11T20:07:41.730Z,2.43
2023-01-11T20:10:10.276Z,2.44
2023-01-11T20:12:38.266Z,2.52
2023-01-11T20:15:07.361Z,2.56
2023-01-11T20:17:37.957Z,2.57
2023-01-11T20:20:07.254Z,2.55
2023-01-11T20:22:36.217Z,2.57
2023-01-11T20:25:04.793Z,2.56
2023-01-11T20:27:34.228Z,2.53
2023-01-11T20:30:02.264Z,2.55
2023-01-11T20:32:41.391Z,2.59
2023-01-11T20:35:10.921Z,2.61
2023-01-11T20:37:39.326Z,2.67
2023-01-11T20:40:08.143Z,2.73
2023-01-11T20:42:36.217Z,2.76
2023-01-11T20:45:04.885Z,2.76
2023-01-11T20:47:32.980Z,2.79
2023-01-11T20:50:01.334Z,2.82
2023-01-11T20:52:29.595Z,2.87
2023-01-11T20:54:57.598Z,2.91
2023-01-11T20:57:29.377Z,2.90
2023-01-11T20:59:57.680Z,2.93
2023-01-11T21:02:25.859Z,2.96
2023-01-11T21:04:54.013Z,2.99
2023-01-11T21:07:22.089Z,3.05
2023-01-11T21:09:50.122Z,3.05
2023-01-11T21:12:19.658Z,2.88
2023-01-11T21:14:47.825Z,2.88
2023-01-11T21:17:16.685Z,2.94
2023-01-11T21:19:45.077Z,2.99
2023-01-11T21:22:13.129Z,3.03
2023-01-11T21:24:41.262Z,3.08
2023-01-11T21:27:09.429Z,3.15
2023-01-11T21:29:37.612Z,3.23
2023-01-11T21:32:06.020Z,3.30
2023-01-11T21:34:34.061Z,3.39
2023-01-11T21:37:02.240Z,3.47
2023-01-11T21:39:30.524Z,3.51
2023-01-11T21:41:59.651Z,3.51
2023-01-11T21:44:31.911Z,3.44
2023-01-11T21:47:06.003Z,3.51
2023-01-11T21:49:34.421Z,3.59
2023-01-11T21:52:02.648Z,3.62
2023-01-11T21:54:30.800Z,3.65
2023-01-11T21:56:58.777Z,3.70
2023-01-11T21:59:26.868Z,3.75
2023-01-11T22:01:54.880Z,3.80
2023-01-11T22:04:22.932Z,3.84
2023-01-11T22:06:54.199Z,3.86
2023-01-11T22:09:24.645Z,3.90
2023-01-11T22:11:52.866Z,3.94
2023-01-11T22:14:21.530Z,3.94
2023-01-11T22:16:49.691Z,3.93
2023-01-11T22:19:17.953Z,3.89
2023-01-11T22:21:46.356Z,3.84
2023-01-11T22:24:15.491Z,3.78
2023-01-11T22:26:43.920Z,3.73
2023-01-11T22:29:12.366Z,3.63
2023-01-11T22:32:07.019Z,3.59
2023-01-11T22:34:36.005Z,3.52
2023-01-11T22:37:04.053Z,3.56
2023-01-11T22:39:32.599Z,3.58
2023-01-11T22:42:00.639Z,3.65
2023-01-11T22:47:48.572Z,3.68
2023-01-11T22:50:16.816Z,3.74
2023-01-11T22:52:45.044Z,3.77
2023-01-11T22:55:13.056Z,3.84
2023-01-11T22:57:41.269Z,3.88
2023-01-11T23:00:11.287Z,3.90
2023-01-11T23:02:39.838Z,3.94
2023-01-11T23:05:08.683Z,3.88
2023-01-11T23:07:36.601Z,3.87
2023-01-11T23:10:07.298Z,3.88
2023-01-11T23:12:54.078Z,3.89
2023-01-11T23:15:22.081Z,3.93
2023-01-11T23:17:50.050Z,3.93
2023-01-11T23:20:18.245Z,3.95
2023-01-11T23:22:46.275Z,3.99
2023-01-11T23:25:14.466Z,4.03
2023-01-11T23:27:42.582Z,4.10
2023-01-11T23:30:11.439Z,4.15
2023-01-11T23:32:39.431Z,4.19
2023-01-11T23:35:09.199Z,4.21
2023-01-11T23:37:37.281Z,4.23
2023-01-11T23:40:05.803Z,4.25
2023-01-11T23:42:35.622Z,4.31
2023-01-11T23:45:06.019Z,4.36
2023-01-11T23:47:34.211Z,4.38
2023-01-11T23:50:02.288Z,4.36
2023-01-11T23:52:32.519Z,4.32
2023-01-11T23:55:00.692Z,4.33
2023-01-11T23:57:28.832Z,4.29
2023-01-11T23:59:56.816Z,4.24
